createdAt,value
2023-03-03T00:01:13.103Z,25.40
2023-03-03T00:03:43.752Z,24.90
2023-03-03T00:06:14.932Z,23.63
2023-03-03T00:08:43.863Z,23.13
2023-03-03T00:11:12.811Z,21.33
2023-03-03T00:13:47.178Z,22.20
2023-03-03T00:16:19.902Z,21.70
2023-03-03T00:18:51.132Z,22.60
2023-03-03T00:21:34.959Z,23.73
2023-03-03T00:24:23.982Z,22.77
2023-03-03T00:26:55.686Z,23.37
2023-03-03T00:29:36.006Z,24.23
2023-03-03T00:32:24.430Z,22.57
2023-03-03T00:34:56.825Z,20.93
2023-03-03T00:37:31.630Z,21.07
2023-03-03T00:40:20.818Z,22.33
2023-03-03T00:42:52.716Z,21.43
2023-03-03T00:45:41.534Z,21.10
2023-03-03T00:48:43.282Z,22.80
2023-03-03T00:51:27.178Z,23.10
2023-03-03T00:53:56.251Z,22.70
2023-03-03T00:56:25.788Z,22.50
2023-03-03T00:58:54.756Z,22.00
2023-03-03T01:01:25.640Z,22.33
2023-03-03T01:03:54.839Z,21.70
2023-03-03T01:06:25.255Z,22.23
2023-03-03T01:08:54.327Z,21.67
2023-03-03T01:11:29.071Z,22.20
2023-03-03T01:13:58.450Z,22.47
2023-03-03T01:16:27.059Z,21.03
2023-03-03T01:18:56.049Z,20.80
2023-03-03T01:21:25.998Z,21.37
2023-03-03T01:23:54.669Z,22.73
2023-03-03T01:26:23.255Z,21.30
2023-03-03T01:28:51.881Z,19.83
2023-03-03T01:31:20.502Z,21.40
2023-03-03T01:33:49.111Z,21.63
2023-03-03T01:36:17.662Z,20.40
2023-03-03T01:38:47.938Z,21.60
2023-03-03T01:41:16.491Z,21.03
2023-03-03T01:43:46.647Z,21.03
2023-03-03T01:46:39.400Z,21.03
2023-03-03T01:49:14.335Z,20.63
2023-03-03T01:51:49.007Z,19.70
2023-03-03T01:54:23.352Z,20.10
2023-03-03T01:56:53.318Z,22.43
2023-03-03T01:59:24.946Z,21.77
2023-03-03T02:01:54.376Z,21.43
2023-03-03T02:04:23.253Z,21.90
2023-03-03T02:06:56.244Z,20.77
2023-03-03T02:09:35.142Z,21.80
2023-03-03T02:12:08.450Z,21.93
2023-03-03T02:14:36.962Z,20.73
2023-03-03T02:17:05.635Z,20.93
2023-03-03T02:19:41.131Z,20.83
2023-03-03T02:22:10.003Z,20.50
2023-03-03T02:24:46.530Z,21.00
2023-03-03T02:27:16.414Z,22.17
2023-03-03T02:29:44.992Z,19.60
2023-03-03T02:32:13.817Z,22.00
2023-03-03T02:34:49.872Z,23.30
2023-03-03T02:37:19.665Z,22.43
2023-03-03T02:39:48.978Z,22.27
2023-03-03T02:42:23.162Z,22.13
2023-03-03T02:44:51.850Z,23.40
2023-03-03T02:47:21.352Z,23.03
2023-03-03T02:49:49.877Z,23.80
2023-03-03T02:52:19.201Z,22.20
2023-03-03T02:54:47.771Z,23.33
2023-03-03T02:57:16.552Z,23.20
2023-03-03T02:59:46.410Z,24.57
2023-03-03T03:02:14.925Z,23.70
2023-03-03T03:04:43.490Z,23.50
2023-03-03T03:07:12.092Z,24.07
2023-03-03T03:09:40.681Z,24.00
2023-03-03T03:12:09.380Z,22.60
2023-03-03T03:14:38.179Z,22.57
2023-03-03T03:17:08.216Z,24.80
2023-03-03T03:19:36.736Z,22.80
2023-03-03T03:22:05.273Z,20.70
2023-03-03T03:24:34.125Z,24.50
2023-03-03T03:27:03.039Z,24.40
2023-03-03T03:29:31.768Z,24.30
2023-03-03T03:32:00.373Z,23.90
2023-03-03T03:34:30.849Z,25.10
2023-03-03T03:36:59.593Z,25.63
2023-03-03T03:39:28.032Z,25.23
2023-03-03T03:41:56.633Z,24.20
2023-03-03T03:44:26.181Z,24.33
2023-03-03T03:46:54.741Z,24.23
2023-03-03T03:49:23.263Z,24.17
2023-03-03T03:51:53.313Z,24.73
2023-03-03T03:54:22.126Z,25.10
2023-03-03T03:56:50.665Z,25.60
2023-03-03T03:59:19.203Z,24.37
2023-03-03T04:01:48.272Z,24.47
2023-03-03T04:04:16.802Z,25.63
2023-03-03T04:06:45.283Z,24.00
2023-03-03T04:09:15.155Z,26.17
2023-03-03T04:11:43.694Z,23.93
2023-03-03T04:14:12.342Z,24.90
2023-03-03T04:16:41.150Z,27.03
2023-03-03T04:19:09.680Z,27.50
2023-03-03T04:21:38.644Z,25.37
2023-03-03T04:24:07.734Z,27.80
2023-03-03T04:26:38.178Z,26.23
2023-03-03T04:29:06.874Z,26.40
2023-03-03T04:31:35.504Z,25.83
2023-03-03T04:34:04.013Z,25.17
2023-03-03T04:36:32.742Z,25.10
2023-03-03T04:39:01.274Z,24.33
2023-03-03T04:41:30.252Z,23.63
2023-03-03T04:44:00.136Z,24.43
2023-03-03T04:46:28.700Z,25.27
2023-03-03T04:48:57.265Z,26.53
2023-03-03T04:51:25.994Z,24.87
2023-03-03T04:53:54.534Z,24.80
2023-03-03T04:56:23.036Z,25.53
2023-03-03T04:58:52.499Z,24.20
2023-03-03T05:01:23.039Z,22.57
2023-03-03T05:03:51.614Z,22.43
2023-03-03T05:06:20.109Z,24.47
2023-03-03T05:08:48.780Z,24.23
2023-03-03T05:11:17.600Z,24.97
2023-03-03T05:13:46.168Z,23.97
2023-03-03T05:16:14.720Z,21.53
2023-03-03T05:18:45.660Z,22.90
2023-03-03T05:21:14.539Z,22.90
2023-03-03T05:23:43.048Z,24.50
2023-03-03T05:26:14.061Z,22.17
2023-03-03T05:28:42.581Z,22.00
2023-03-03T05:31:11.144Z,22.63
2023-03-03T05:33:39.666Z,23.17
2023-03-03T05:36:10.393Z,22.43
2023-03-03T05:38:38.948Z,22.40
2023-03-03T05:41:07.433Z,22.33
2023-03-03T05:43:35.943Z,21.60
2023-03-03T05:46:04.755Z,21.97
2023-03-03T05:48:33.270Z,22.43
2023-03-03T05:51:02.398Z,21.27
2023-03-03T05:53:32.446Z,23.20
2023-03-03T05:56:00.987Z,22.63
2023-03-03T05:58:30.485Z,20.93
2023-03-03T06:00:59.485Z,22.63
2023-03-03T06:03:27.964Z,22.40
2023-03-03T06:05:56.510Z,21.37
2023-03-03T06:08:25.111Z,21.47
2023-03-03T06:10:55.082Z,20.30
2023-03-03T06:13:23.653Z,20.67
2023-03-03T06:15:52.426Z,21.80
2023-03-03T06:18:21.027Z,22.53
2023-03-03T06:20:53.466Z,20.70
2023-03-03T06:23:22.156Z,21.37
2023-03-03T06:25:50.696Z,20.27
2023-03-03T06:28:20.721Z,22.87
2023-03-03T06:30:49.599Z,22.23
2023-03-03T06:33:18.829Z,22.47
2023-03-03T06:35:51.385Z,22.23
2023-03-03T06:38:20.392Z,22.13
2023-03-03T06:40:49.455Z,21.90
2023-03-03T06:43:19.473Z,22.17
2023-03-03T06:45:48.093Z,21.37
2023-03-03T06:48:16.954Z,20.97
2023-03-03T06:50:45.544Z,21.93
2023-03-03T06:53:16.156Z,21.37
2023-03-03T06:55:45.687Z,22.53
2023-03-03T06:58:16.670Z,21.17
2023-03-03T07:00:51.596Z,22.17
2023-03-03T07:03:23.732Z,20.23
2023-03-03T07:05:53.864Z,20.17
2023-03-03T07:08:24.434Z,22.17
2023-03-03T07:10:54.216Z,21.03
2023-03-03T07:13:24.824Z,21.63
2023-03-03T07:15:56.715Z,22.33
2023-03-03T07:18:36.573Z,21.63
2023-03-03T07:21:16.811Z,22.30
2023-03-03T07:23:46.591Z,22.33
2023-03-03T07:26:16.965Z,21.57
2023-03-03T07:28:50.877Z,21.47
2023-03-03T07:31:29.728Z,22.47
2023-03-03T07:34:00.741Z,22.10
2023-03-03T07:36:32.516Z,21.70
2023-03-03T07:39:05.660Z,22.13
2023-03-03T07:41:36.763Z,21.23
2023-03-03T07:44:07.806Z,20.90
2023-03-03T07:46:44.103Z,21.33
2023-03-03T07:49:24.523Z,21.80
2023-03-03T07:51:57.684Z,21.53
2023-03-03T07:54:35.394Z,20.40
2023-03-03T07:57:16.280Z,21.03
2023-03-03T07:59:49.454Z,20.30
2023-03-03T08:02:50.084Z,18.43
2023-03-03T08:05:32.639Z,18.10
2023-03-03T08:08:30.311Z,17.67
2023-03-03T08:11:00.014Z,17.83
2023-03-03T08:13:38.883Z,18.53
2023-03-03T08:16:26.756Z,17.93
2023-03-03T08:19:02.836Z,17.80
2023-03-03T08:21:32.557Z,17.27
2023-03-03T08:24:01.837Z,18.07
2023-03-03T08:26:30.595Z,17.37
2023-03-03T08:28:59.310Z,18.63
2023-03-03T08:31:40.766Z,18.23
2023-03-03T08:34:11.850Z,17.83
2023-03-03T08:36:40.647Z,17.23
2023-03-03T08:39:09.500Z,17.30
2023-03-03T08:41:39.331Z,17.53
2023-03-03T08:44:08.219Z,17.57
2023-03-03T08:46:36.924Z,17.07
2023-03-03T08:49:06.767Z,16.73
2023-03-03T08:51:37.348Z,16.67
2023-03-03T08:54:06.319Z,16.37
2023-03-03T08:56:35.063Z,14.00
2023-03-03T08:59:03.930Z,15.23
2023-03-03T09:01:33.643Z,15.90
2023-03-03T09:04:02.317Z,15.87
2023-03-03T09:06:31.121Z,15.77
2023-03-03T09:09:01.394Z,14.77
2023-03-03T09:11:32.768Z,15.77
2023-03-03T09:14:08.903Z,15.93
2023-03-03T09:16:41.829Z,15.67
2023-03-03T09:19:27.004Z,15.97
2023-03-03T09:21:56.848Z,16.00
2023-03-03T09:24:29.923Z,16.23
2023-03-03T09:27:00.031Z,16.27
2023-03-03T09:29:30.052Z,16.60
2023-03-03T09:32:01.462Z,15.03
2023-03-03T09:34:40.325Z,14.63
2023-03-03T09:37:22.555Z,15.70
2023-03-03T09:39:53.998Z,15.90
2023-03-03T09:42:48.664Z,14.20
2023-03-03T09:45:40.062Z,14.60
2023-03-03T09:48:26.695Z,14.20
2023-03-03T09:51:09.138Z,13.73
2023-03-03T09:54:02.810Z,12.83
2023-03-03T09:56:37.157Z,14.30
2023-03-03T09:59:28.292Z,13.80
2023-03-03T10:02:35.358Z,14.40
2023-03-03T10:05:18.658Z,13.57
2023-03-03T10:07:57.299Z,13.70
2023-03-03T10:10:47.405Z,14.30
2023-03-03T10:13:27.699Z,14.40
2023-03-03T10:16:18.507Z,14.03
2023-03-03T10:18:57.280Z,14.53
2023-03-03T10:21:31.509Z,13.97
2023-03-03T10:24:07.373Z,13.53
2023-03-03T10:27:05.424Z,13.67
2023-03-03T10:29:47.638Z,14.37
2023-03-03T10:32:51.996Z,13.27
2023-03-03T10:35:56.864Z,14.33
2023-03-03T10:38:40.434Z,14.33
2023-03-03T10:41:27.814Z,14.63
2023-03-03T10:44:15.263Z,13.87
2023-03-03T10:46:58.965Z,14.53
2023-03-03T10:49:46.408Z,15.17
2023-03-03T10:52:34.700Z,14.37
2023-03-03T10:55:37.532Z,13.20
2023-03-03T10:58:24.955Z,13.53
2023-03-03T11:01:06.701Z,14.20
2023-03-03T11:04:04.856Z,14.03
2023-03-03T11:06:42.512Z,13.97
2023-03-03T11:09:24.459Z,14.93
2023-03-03T11:11:59.889Z,14.60
2023-03-03T11:14:35.522Z,13.57
2023-03-03T11:17:12.119Z,12.67
2023-03-03T11:19:55.272Z,12.10
2023-03-03T11:22:36.681Z,13.93
2023-03-03T11:25:17.728Z,14.57
2023-03-03T11:28:13.749Z,14.53
2023-03-03T11:30:56.221Z,14.07
2023-03-03T11:33:31.662Z,13.90
2023-03-03T11:36:13.343Z,14.33
2023-03-03T11:38:58.447Z,14.77
2023-03-03T11:41:37.883Z,14.67
2023-03-03T11:44:19.492Z,16.90
2023-03-03T11:46:52.935Z,14.67
2023-03-03T11:49:29.512Z,14.80
2023-03-03T11:52:07.523Z,14.40
2023-03-03T11:54:45.250Z,14.17
2023-03-03T11:57:22.009Z,14.47
2023-03-03T12:00:09.950Z,14.77
2023-03-03T12:02:58.831Z,13.53
2023-03-03T12:05:38.694Z,13.93
2023-03-03T12:08:20.330Z,14.07
2023-03-03T12:10:57.837Z,14.17
2023-03-03T12:13:35.043Z,14.80
2023-03-03T12:16:10.022Z,15.60
2023-03-03T12:18:54.225Z,15.03
2023-03-03T12:21:35.528Z,14.93
2023-03-03T12:24:26.608Z,15.97
2023-03-03T12:27:05.031Z,15.43
2023-03-03T12:29:44.880Z,15.77
2023-03-03T12:32:23.414Z,14.87
2023-03-03T12:34:56.175Z,16.23
2023-03-03T12:37:54.758Z,15.53
2023-03-03T12:40:27.845Z,14.07
2023-03-03T12:43:15.586Z,14.83
2023-03-03T12:45:54.714Z,15.23
2023-03-03T12:48:29.607Z,13.90
2023-03-03T12:51:06.939Z,14.77
2023-03-03T12:53:48.215Z,14.97
2023-03-03T12:56:26.610Z,14.43
2023-03-03T12:59:02.526Z,14.33
2023-03-03T13:01:44.933Z,14.27
2023-03-03T13:04:27.881Z,14.33
2023-03-03T13:07:04.478Z,14.33
2023-03-03T13:09:43.156Z,15.10
2023-03-03T13:12:32.227Z,13.57
2023-03-03T13:15:10.542Z,12.23
2023-03-03T13:17:49.424Z,12.13
2023-03-03T13:20:26.692Z,12.57
2023-03-03T13:23:01.174Z,13.40
2023-03-03T13:25:44.568Z,12.43
2023-03-03T13:28:28.505Z,12.03
2023-03-03T13:31:04.179Z,12.00
2023-03-03T13:33:37.455Z,12.80
2023-03-03T13:36:11.393Z,12.83
2023-03-03T13:38:47.789Z,11.70
2023-03-03T13:41:24.374Z,13.03
2023-03-03T13:44:00.348Z,12.20
2023-03-03T13:46:39.089Z,11.40
2023-03-03T13:49:38.313Z,12.67
2023-03-03T13:52:11.525Z,13.63
2023-03-03T13:55:06.138Z,12.03
2023-03-03T13:57:47.035Z,12.20
2023-03-03T14:00:27.997Z,12.90
2023-03-03T14:03:10.227Z,12.10
2023-03-03T14:05:40.709Z,12.33
2023-03-03T14:08:17.784Z,12.37
2023-03-03T14:10:52.543Z,12.70
2023-03-03T14:13:29.581Z,13.17
2023-03-03T14:16:07.208Z,12.47
2023-03-03T14:18:39.171Z,12.47
2023-03-03T14:21:13.266Z,12.10
2023-03-03T14:23:56.157Z,12.47
2023-03-03T14:26:25.822Z,13.33
2023-03-03T14:29:17.367Z,13.13
2023-03-03T14:31:47.882Z,12.93
2023-03-03T14:34:37.618Z,13.37
2023-03-03T14:37:27.236Z,13.00
2023-03-03T14:40:14.829Z,13.13
2023-03-03T14:42:50.713Z,12.30
2023-03-03T14:45:31.437Z,12.30
2023-03-03T14:48:08.014Z,12.77
2023-03-03T14:50:38.792Z,13.63
2023-03-03T14:53:33.997Z,12.40
2023-03-03T14:56:27.717Z,12.87
2023-03-03T14:59:17.437Z,14.10
2023-03-03T15:01:46.819Z,13.37
2023-03-03T15:04:28.500Z,13.67
2023-03-03T15:06:59.801Z,14.87
2023-03-03T15:09:37.004Z,13.93
2023-03-03T15:12:21.394Z,15.17
2023-03-03T15:14:51.900Z,13.87
2023-03-03T15:17:35.976Z,13.87
2023-03-03T15:20:20.524Z,14.70
2023-03-03T15:22:51.716Z,14.40
2023-03-03T15:25:42.449Z,13.97
2023-03-03T15:28:29.359Z,14.63
2023-03-03T15:31:05.559Z,14.77
2023-03-03T15:33:42.167Z,13.80
2023-03-03T15:36:19.056Z,13.50
2023-03-03T15:38:57.475Z,14.10
2023-03-03T15:41:37.736Z,13.97
2023-03-03T15:44:16.922Z,14.93
2023-03-03T15:46:59.743Z,14.40
2023-03-03T15:50:01.081Z,15.57
2023-03-03T15:52:48.000Z,14.43
2023-03-03T15:55:29.967Z,14.07
2023-03-03T15:58:24.622Z,13.47
2023-03-03T16:01:04.848Z,13.67
2023-03-03T16:03:39.086Z,13.07
2023-03-03T16:06:13.052Z,13.67
2023-03-03T16:08:57.019Z,12.93
2023-03-03T16:11:36.446Z,12.57
2023-03-03T16:14:38.709Z,11.43
2023-03-03T16:17:18.099Z,11.40
2023-03-03T16:19:55.149Z,11.57
2023-03-03T16:22:38.070Z,11.40
2023-03-03T16:25:27.502Z,11.93
2023-03-03T16:28:02.614Z,11.40
2023-03-03T16:30:36.521Z,11.13
2023-03-03T16:33:19.586Z,11.40
2023-03-03T16:35:57.091Z,11.30
2023-03-03T16:38:34.889Z,11.57
2023-03-03T16:41:14.290Z,12.00
2023-03-03T16:44:00.326Z,11.23
2023-03-03T16:46:35.526Z,11.37
2023-03-03T16:49:18.013Z,11.00
2023-03-03T16:51:54.103Z,11.20
2023-03-03T16:54:34.777Z,11.47
2023-03-03T16:57:13.277Z,11.30
2023-03-03T16:59:54.598Z,11.53
2023-03-03T17:02:40.275Z,11.53
2023-03-03T17:05:22.565Z,12.13
2023-03-03T17:07:59.515Z,11.50
2023-03-03T17:10:31.206Z,12.27
2023-03-03T17:13:26.494Z,11.17
2023-03-03T17:16:09.922Z,11.10
2023-03-03T17:18:52.158Z,11.67
2023-03-03T17:21:34.005Z,13.17
2023-03-03T17:24:15.733Z,11.60
2023-03-03T17:27:05.096Z,12.43
2023-03-03T17:29:57.449Z,13.73
2023-03-03T17:32:42.619Z,14.53
2023-03-03T17:35:34.858Z,14.50
2023-03-03T17:38:11.948Z,17.57
2023-03-03T17:40:53.283Z,17.77
2023-03-03T17:43:27.810Z,17.63
2023-03-03T17:46:03.388Z,17.80
2023-03-03T17:49:00.624Z,17.30
2023-03-03T17:51:58.265Z,17.03
2023-03-03T17:54:50.724Z,18.20
2023-03-03T17:57:34.041Z,17.40
2023-03-03T18:00:18.823Z,18.20
2023-03-03T18:03:13.810Z,16.00
2023-03-03T18:05:55.471Z,14.33
2023-03-03T18:09:01.971Z,14.53
2023-03-03T18:11:55.252Z,14.60
2023-03-03T18:14:46.111Z,14.50
2023-03-03T18:17:28.929Z,14.07
2023-03-03T18:20:19.378Z,15.03
2023-03-03T18:22:51.185Z,15.20
2023-03-03T18:25:22.224Z,14.00
2023-03-03T18:28:24.834Z,14.60
2023-03-03T18:30:59.601Z,13.30
2023-03-03T18:33:44.898Z,14.10
2023-03-03T18:36:41.001Z,14.40
2023-03-03T18:39:16.415Z,13.17
2023-03-03T18:42:14.345Z,13.00
2023-03-03T18:44:44.015Z,13.50
2023-03-03T18:47:15.175Z,13.40
2023-03-03T18:49:58.208Z,13.40
2023-03-03T18:52:32.899Z,13.53
2023-03-03T18:55:27.546Z,13.07
2023-03-03T18:58:35.037Z,14.43
2023-03-03T19:01:36.585Z,13.97
2023-03-03T19:04:21.708Z,13.70
2023-03-03T19:07:12.960Z,11.93
2023-03-03T19:10:03.157Z,12.50
2023-03-03T19:12:51.994Z,11.47
2023-03-03T19:15:50.376Z,12.00
2023-03-03T19:18:22.182Z,8.30
2023-03-03T19:21:00.131Z,8.43
2023-03-03T19:23:51.444Z,8.47
2023-03-03T19:27:02.966Z,7.93
2023-03-03T19:29:59.215Z,7.70
2023-03-03T19:32:39.536Z,8.13
2023-03-03T19:35:24.277Z,8.13
2023-03-03T19:38:06.183Z,8.40
2023-03-03T19:40:45.681Z,9.13
2023-03-03T19:43:32.113Z,8.20
2023-03-03T19:46:21.647Z,8.10
2023-03-03T19:48:57.948Z,7.87
2023-03-03T19:51:35.273Z,7.57
2023-03-03T19:54:17.889Z,7.50
2023-03-03T19:56:51.718Z,8.50
2023-03-03T19:59:32.923Z,7.80
2023-03-03T20:02:17.402Z,7.60
2023-03-03T20:04:58.682Z,7.83
2023-03-03T20:07:36.318Z,13.60
2023-03-03T20:10:46.599Z,11.50
2023-03-03T20:13:42.489Z,20.53
2023-03-03T20:16:26.859Z,16.47
2023-03-03T20:19:27.013Z,7.10
2023-03-03T20:22:10.917Z,9.47
2023-03-03T20:24:57.945Z,7.83
2023-03-03T20:27:33.472Z,8.20
2023-03-03T20:30:09.828Z,7.23
2023-03-03T20:32:57.291Z,5.47
2023-03-03T20:35:40.051Z,5.07
2023-03-03T20:38:22.074Z,10.17
2023-03-03T20:40:57.973Z,12.20
2023-03-03T20:43:43.261Z,29.77
2023-03-03T20:46:22.956Z,8.77
2023-03-03T20:49:10.384Z,7.40
2023-03-03T20:51:53.834Z,4.53
2023-03-03T20:54:43.345Z,4.07
2023-03-03T20:57:20.173Z,3.47
2023-03-03T20:59:59.038Z,4.00
2023-03-03T21:02:35.655Z,4.63
2023-03-03T21:05:15.592Z,3.10
2023-03-03T21:07:56.826Z,3.10
2023-03-03T21:10:27.941Z,3.00
2023-03-03T21:12:59.938Z,3.10
2023-03-03T21:15:31.028Z,3.13
2023-03-03T21:18:01.380Z,3.00
2023-03-03T21:20:33.763Z,2.97
2023-03-03T21:23:04.244Z,2.50
2023-03-03T21:25:52.412Z,2.53
2023-03-03T21:28:25.423Z,2.93
2023-03-03T21:31:15.547Z,2.50
2023-03-03T21:33:51.508Z,2.30
2023-03-03T21:36:23.876Z,25.93
2023-03-03T21:38:55.829Z,27.17
2023-03-03T21:41:24.607Z,31.07
2023-03-03T21:43:55.010Z,12.57
2023-03-03T21:46:25.451Z,3.90
2023-03-03T21:48:54.458Z,5.83
2023-03-03T21:51:25.167Z,8.87
2023-03-03T21:53:53.918Z,9.13
2023-03-03T21:56:22.884Z,11.40
2023-03-03T21:58:51.825Z,4.47
2023-03-03T22:01:21.235Z,10.20
2023-03-03T22:03:50.160Z,13.10
2023-03-03T22:06:18.892Z,8.63
2023-03-03T22:08:49.229Z,5.70
2023-03-03T22:11:18.785Z,5.13
2023-03-03T22:13:48.885Z,4.00
2023-03-03T22:16:17.638Z,3.67
2023-03-03T22:18:46.623Z,4.27
2023-03-03T22:21:15.754Z,4.00
2023-03-03T22:23:44.446Z,3.37
2023-03-03T22:26:14.633Z,3.17
2023-03-03T22:28:44.381Z,2.97
2023-03-03T22:31:13.866Z,3.40
2023-03-03T22:33:42.982Z,4.43
2023-03-03T22:36:14.224Z,3.70
2023-03-03T22:38:43.530Z,4.20
2023-03-03T22:41:13.617Z,3.70
2023-03-03T22:43:43.150Z,3.30
2023-03-03T22:46:12.414Z,2.80
2023-03-03T22:48:41.409Z,3.60
2023-03-03T22:51:11.124Z,3.07
2023-03-03T22:53:40.033Z,2.87
2023-03-03T22:56:09.667Z,3.77
2023-03-03T22:58:40.045Z,3.77
2023-03-03T23:01:08.679Z,3.50
2023-03-03T23:03:37.633Z,3.30
2023-03-03T23:06:07.278Z,3.33
2023-03-03T23:08:35.856Z,3.77
2023-03-03T23:11:04.951Z,3.17
2023-03-03T23:13:35.377Z,2.50
2023-03-03T23:16:05.914Z,3.10
2023-03-03T23:18:34.860Z,3.20
2023-03-03T23:21:03.491Z,3.23
2023-03-03T23:23:32.190Z,3.13
2023-03-03T23:26:00.995Z,3.67
2023-03-03T23:28:29.649Z,3.53
2023-03-03T23:30:58.374Z,3.87
2023-03-03T23:33:28.375Z,3.43
2023-03-03T23:35:57.916Z,3.10
2023-03-03T23:38:26.642Z,2.73
2023-03-03T23:40:55.617Z,3.23
2023-03-03T23:43:24.278Z,3.70
2023-03-03T23:45:52.843Z,3.17
2023-03-03T23:48:22.259Z,3.27
2023-03-03T23:50:52.716Z,3.10
2023-03-03T23:53:21.640Z,3.70
2023-03-03T23:55:50.229Z,3.77
2023-03-03T23:58:19.022Z,3.33
